This is the latest recevied weather packets stored in our database for station/object VA3PC-13. If no packets are shown the sender has not sent any weather packets the latest 10 day(s).
| Time | Temp. | Humidity | Pressure | Rain* | Wind** | Luminosity | Snow |
|---|---|---|---|---|---|---|---|
| 1777922718 | 18.89° C | 47% | 968.4 hPa | 0 mm | - | 543 W/m² | - |
| 1777921522 | 18.89° C | 50% | 968.6 hPa | 0 mm | - | 600 W/m² | - |
| 1777917939 | 16.67° C | 63% | 969 hPa | 0 mm | - | 800 W/m² | - |
| 1777914919 | 13.89° C | 74% | 970.3 hPa | 0 mm | - | 282 W/m² | - |
| 1777913717 | 13.33° C | 71% | 970.4 hPa | 0 mm | - | 403 W/m² | - |
| 1777912540 | 12.78° C | 77% | 970.6 hPa | 0 mm | - | 462 W/m² | - |
| 1777911918 | 12.22° C | 78% | 971 hPa | 0 mm | - | 349 W/m² | - |
| 1777911318 | 12.22° C | 79% | 971 hPa | 0 mm | - | 377 W/m² | - |
| 1777910737 | 11.67° C | 83% | 971.2 hPa | 0 mm | - | 315 W/m² | - |
| 1777905918 | 9.44° C | 92% | 972.2 hPa | 0 mm | - | 193 W/m² | - |
| 1777904719 | 9.44° C | 92% | 972.2 hPa | 0 mm | - | 238 W/m² | - |
| 1777904119 | 8.89° C | 95% | 972.3 hPa | 0 mm | - | 190 W/m² | - |
| 1777899918 | 7.22° C | 99% | 972.8 hPa | 0 mm | - | 86 W/m² | - |
| 1777898720 | 7.22° C | 99% | 972.9 hPa | 0 mm | - | 70 W/m² | - |
| 1777896317 | 6.67° C | 99% | 972.7 hPa | 0 mm | - | 60 W/m² | - |
| 1777895121 | 6.67° C | 99% | 972.7 hPa | 0 mm | - | 61 W/m² | - |
| 1777893939 | 6.67° C | 99% | 972.6 hPa | 0 mm | - | 54 W/m² | - |
| 1777893319 | 6.67° C | 99% | 972.9 hPa | 0 mm | - | 44 W/m² | - |
| 1777888559 | 6.67° C | 99% | 972.9 hPa | 0 mm | - | 0 W/m² | - |
| 1777886118 | 6.11° C | 99% | 972.7 hPa | 0 mm | - | 0 W/m² | - |
| 1777883118 | 6.11° C | 99% | 972.7 hPa | 1.78 mm | - | 0 W/m² | - |
| 1777877737 | 6.11° C | 98% | 972.9 hPa | 0 mm | - | 0 W/m² | - |
| 1777875917 | 6.11° C | 98% | 973 hPa | 0 mm | - | 0 W/m² | - |
| 1777874117 | 5.56° C | 98% | 973.3 hPa | 0 mm | - | 0 W/m² | - |
| 1777872318 | 5.56° C | 98% | 973.6 hPa | 0 mm | - | 0 W/m² | - |
* Rain latest hour (hover to see other rain measurements)
** Current wind speed in m/s (hover to see current wind gust speed)